Time;durP1;ratioP1;P1;durP2;ratioP2;P2;SDS_P1;SDS_P2;PMS_P1;PMS_P2;Temp;Humidity;BMP_temperature;BMP_pressure;BME280_temperature;BME280_humidity;BME280_pressure;Samples;Min_cycle;Max_cycle;Signal;HPM_P1;HPM_P2
2021/09/28 00:00:35;;;;;;;10.18;2.97;;;14.80;99.90;;;;;;5072860;28;20060;-77
2021/09/28 00:03:01;;;;;;;10.73;2.72;;;14.80;99.90;;;;;;5064473;28;20032;-77
2021/09/28 00:05:27;;;;;;;8.48;2.35;;;14.70;99.90;;;;;;5075131;28;20024;-78
2021/09/28 00:07:53;;;;;;;8.68;2.38;;;14.80;99.90;;;;;;5071977;28;20032;-78
2021/09/28 00:10:19;;;;;;;13.05;2.33;;;14.70;99.90;;;;;;5072858;28;20162;-75
2021/09/28 00:12:46;;;;;;;8.15;2.55;;;14.80;99.90;;;;;;5074812;28;20025;-78
2021/09/28 00:15:14;;;;;;;9.75;2.83;;;14.70;99.90;;;;;;5079365;28;20058;-77
2021/09/28 00:17:40;;;;;;;14.25;2.55;;;14.70;99.90;;;;;;5069685;28;20039;-78
2021/09/28 00:20:07;;;;;;;7.72;2.55;;;14.70;99.90;;;;;;5071640;28;20025;-78
2021/09/28 00:22:33;;;;;;;10.75;2.45;;;14.70;99.90;;;;;;5067519;28;20036;-79
2021/09/28 00:24:58;;;;;;;8.00;3.08;;;14.70;99.90;;;;;;5076543;28;20021;-78
2021/09/28 00:27:24;;;;;;;13.65;2.75;;;14.70;99.90;;;;;;5079406;28;20111;-77
2021/09/28 00:29:50;;;;;;;9.30;2.60;;;14.70;99.90;;;;;;5077022;28;20158;-77
2021/09/28 00:32:16;;;;;;;9.30;2.50;;;14.60;99.90;;;;;;5074298;28;20481;-77
2021/09/28 00:34:42;;;;;;;8.93;3.20;;;14.60;99.90;;;;;;5064933;28;20090;-75
2021/09/28 00:37:08;;;;;;;10.50;3.03;;;14.50;99.90;;;;;;5072900;28;20568;-78
2021/09/28 00:39:34;;;;;;;14.10;2.67;;;14.60;99.90;;;;;;5072231;28;20123;-78
2021/09/28 00:41:59;;;;;;;10.45;2.60;;;14.50;99.90;;;;;;5070768;28;20043;-77
2021/09/28 00:44:39;;;;;;;14.60;3.25;;;14.50;99.90;;;;;;5071808;28;20043;-76
2021/09/28 00:47:06;;;;;;;8.98;2.65;;;14.60;99.90;;;;;;5076024;28;20381;-79
2021/09/28 00:49:32;;;;;;;11.40;2.67;;;14.50;99.90;;;;;;5073732;28;20020;-77
2021/09/28 00:51:58;;;;;;;11.15;2.40;;;14.50;99.90;;;;;;5074986;28;20492;-77
2021/09/28 00:54:24;;;;;;;10.13;2.83;;;14.40;99.90;;;;;;5072780;28;20044;-77
2021/09/28 00:56:50;;;;;;;15.43;3.25;;;14.50;99.90;;;;;;5076619;28;20035;-78
2021/09/28 00:59:16;;;;;;;8.80;3.05;;;14.50;99.90;;;;;;5073347;28;20108;-77
2021/09/28 01:01:42;;;;;;;12.48;2.85;;;14.50;99.90;;;;;;5079298;28;20119;-77
2021/09/28 01:04:07;;;;;;;8.02;2.92;;;14.50;99.90;;;;;;5068168;28;20028;-78
2021/09/28 01:06:33;;;;;;;9.27;2.20;;;14.50;99.90;;;;;;5074973;28;20061;-77
2021/09/28 01:09:00;;;;;;;12.00;2.80;;;14.50;99.90;;;;;;5070758;28;20047;-78
2021/09/28 01:11:26;;;;;;;13.52;2.78;;;14.50;99.90;;;;;;5068049;28;20017;-77
2021/09/28 01:13:51;;;;;;;16.48;3.13;;;14.50;99.90;;;;;;5072360;28;20046;-76
2021/09/28 01:16:17;;;;;;;6.80;2.55;;;14.50;99.90;;;;;;5070623;28;20376;-77
2021/09/28 01:18:43;;;;;;;6.95;2.78;;;14.40;99.90;;;;;;5069232;28;20028;-78
2021/09/28 01:21:13;;;;;;;10.43;3.15;;;14.30;99.90;;;;;;5078003;28;20031;-77
2021/09/28 01:23:44;;;;;;;7.25;2.55;;;14.30;99.90;;;;;;5072812;28;20044;-78
2021/09/28 01:26:17;;;;;;;10.93;2.80;;;14.30;99.90;;;;;;5073563;28;20472;-77
2021/09/28 01:28:46;;;;;;;11.18;2.55;;;14.30;99.90;;;;;;5077170;28;20072;-78
2021/09/28 01:31:13;;;;;;;7.72;2.58;;;14.30;99.90;;;;;;5079058;28;20013;-77
2021/09/28 01:33:38;;;;;;;9.80;2.47;;;14.40;99.90;;;;;;5079374;28;20035;-77
2021/09/28 01:36:06;;;;;;;10.02;2.95;;;14.40;99.90;;;;;;5083639;28;20016;-78
2021/09/28 01:38:31;;;;;;;15.70;2.80;;;14.40;99.90;;;;;;5080771;28;20032;-77
2021/09/28 01:40:58;;;;;;;9.10;2.35;;;14.30;99.90;;;;;;5073494;28;20033;-78
2021/09/28 01:43:24;;;;;;;9.50;2.53;;;14.30;99.90;;;;;;5074294;28;20036;-79
2021/09/28 01:45:58;;;;;;;7.20;2.10;;;14.30;99.90;;;;;;5072723;28;20396;-77
2021/09/28 01:48:29;;;;;;;13.65;2.70;;;14.30;99.90;;;;;;5083158;28;20495;-78
2021/09/28 01:50:55;;;;;;;9.73;2.38;;;14.30;99.90;;;;;;5070003;28;20024;-78
2021/09/28 01:53:21;;;;;;;9.50;2.47;;;14.30;99.90;;;;;;5074078;28;20049;-78
2021/09/28 01:55:46;;;;;;;7.22;2.10;;;14.30;99.90;;;;;;5082420;28;20158;-77
2021/09/28 01:58:14;;;;;;;14.00;2.78;;;14.30;99.90;;;;;;5080960;28;20054;-78
2021/09/28 02:00:40;;;;;;;13.35;2.60;;;14.30;99.90;;;;;;5077265;28;20032;-78
2021/09/28 02:03:06;;;;;;;15.63;2.67;;;14.30;99.90;;;;;;5074505;28;20028;-77
2021/09/28 02:05:32;;;;;;;13.23;2.90;;;14.30;99.90;;;;;;5077020;28;20077;-78
2021/09/28 02:07:58;;;;;;;10.18;2.47;;;14.30;99.90;;;;;;5077352;28;20020;-78
2021/09/28 02:10:23;;;;;;;12.68;2.70;;;14.20;99.90;;;;;;5079963;28;20455;-78
2021/09/28 02:12:50;;;;;;;10.40;2.50;;;14.30;99.90;;;;;;5077982;28;20038;-79
2021/09/28 02:15:16;;;;;;;18.25;2.88;;;14.30;99.90;;;;;;5078083;28;20024;-77
2021/09/28 02:17:41;;;;;;;9.77;2.92;;;14.20;99.90;;;;;;5080807;28;20491;-77
2021/09/28 02:20:08;;;;;;;8.30;2.30;;;14.20;99.90;;;;;;5076597;28;20495;-77
2021/09/28 02:22:36;;;;;;;7.72;2.30;;;14.20;99.90;;;;;;5075704;28;20038;-78
2021/09/28 02:25:02;;;;;;;13.00;2.63;;;14.20;99.90;;;;;;5067638;28;20028;-78
2021/09/28 02:27:28;;;;;;;14.95;3.40;;;14.20;99.90;;;;;;5079671;28;20033;-78
2021/09/28 02:29:54;;;;;;;9.25;2.67;;;14.10;99.90;;;;;;5073109;28;20024;-77
2021/09/28 02:32:20;;;;;;;8.48;2.47;;;14.20;99.90;;;;;;5072993;28;20031;-77
2021/09/28 02:34:45;;;;;;;11.70;2.67;;;14.10;99.90;;;;;;5073501;28;20025;-78
2021/09/28 02:37:12;;;;;;;14.32;2.90;;;14.10;99.90;;;;;;5076715;28;20028;-79
2021/09/28 02:39:40;;;;;;;9.85;2.50;;;14.10;99.90;;;;;;5084888;28;20033;-77
2021/09/28 02:42:07;;;;;;;9.90;2.42;;;14.00;99.90;;;;;;5071615;28;20162;-77
2021/09/28 02:44:32;;;;;;;9.18;2.50;;;14.00;99.90;;;;;;5074928;28;20788;-76
2021/09/28 02:46:58;;;;;;;8.60;2.75;;;14.00;99.90;;;;;;5068338;28;20024;-77
2021/09/28 02:49:24;;;;;;;13.95;2.70;;;14.10;99.90;;;;;;5075551;28;20024;-77
2021/09/28 02:51:50;;;;;;;11.57;2.53;;;14.00;99.90;;;;;;5076668;28;20388;-76
2021/09/28 02:54:15;;;;;;;12.65;2.70;;;14.00;99.90;;;;;;5073232;28;20044;-77
2021/09/28 02:56:41;;;;;;;9.90;2.67;;;14.00;99.90;;;;;;5073213;28;20067;-77
2021/09/28 02:59:07;;;;;;;8.52;2.38;;;14.00;99.90;;;;;;5077895;28;20032;-78
2021/09/28 03:01:33;;;;;;;11.40;2.42;;;14.00;99.90;;;;;;5077635;28;20028;-77
2021/09/28 03:03:59;;;;;;;8.52;2.72;;;14.00;99.90;;;;;;5069606;28;20054;-76
2021/09/28 03:06:24;;;;;;;11.10;2.47;;;13.90;99.90;;;;;;5076026;28;20479;-77
2021/09/28 03:08:50;;;;;;;10.80;2.88;;;14.00;99.90;;;;;;5071384;28;20050;-78
2021/09/28 03:11:16;;;;;;;14.43;2.85;;;13.90;99.90;;;;;;5074040;28;20025;-78
2021/09/28 03:13:41;;;;;;;10.70;3.03;;;13.90;99.90;;;;;;5069219;28;20445;-77
2021/09/28 03:16:07;;;;;;;8.23;2.70;;;13.90;99.90;;;;;;5074236;28;20019;-78
2021/09/28 03:18:33;;;;;;;8.20;2.47;;;13.90;99.90;;;;;;5071468;28;20205;-78
2021/09/28 03:20:58;;;;;;;7.20;2.83;;;13.80;99.90;;;;;;5067007;28;20020;-78
2021/09/28 03:23:24;;;;;;;11.77;3.00;;;13.80;99.90;;;;;;5069971;28;20043;-78
2021/09/28 03:25:50;;;;;;;12.88;3.10;;;13.80;99.90;;;;;;5077052;28;20074;-78
2021/09/28 03:28:16;;;;;;;9.25;2.70;;;13.80;99.90;;;;;;5070553;28;20028;-77
2021/09/28 03:30:42;;;;;;;13.95;2.90;;;13.80;99.90;;;;;;5069191;28;20032;-78
2021/09/28 03:33:08;;;;;;;12.02;3.17;;;13.70;99.90;;;;;;5072617;28;20029;-78
2021/09/28 03:35:34;;;;;;;11.10;2.90;;;13.70;99.90;;;;;;5068537;28;20025;-77
2021/09/28 03:38:00;;;;;;;9.13;2.85;;;13.70;99.90;;;;;;5067204;28;20032;-78
2021/09/28 03:40:29;;;;;;;12.73;2.50;;;13.70;99.90;;;;;;5072171;28;20039;-78
2021/09/28 03:42:55;;;;;;;16.48;3.58;;;13.70;99.90;;;;;;5066847;28;20587;-78
2021/09/28 03:45:21;;;;;;;11.45;3.08;;;13.70;99.90;;;;;;5069611;28;20020;-78
2021/09/28 03:47:47;;;;;;;20.50;2.60;;;13.70;99.90;;;;;;5072049;28;20118;-78
2021/09/28 03:50:13;;;;;;;11.25;2.53;;;13.70;99.90;;;;;;5073502;28;20281;-80
2021/09/28 03:52:39;;;;;;;16.35;2.53;;;13.60;99.90;;;;;;5069726;28;20059;-78
2021/09/28 03:55:05;;;;;;;11.75;2.55;;;13.60;99.90;;;;;;5073025;28;20052;-77
2021/09/28 03:57:31;;;;;;;10.60;2.70;;;13.60;99.90;;;;;;5073431;28;20481;-75
2021/09/28 03:59:57;;;;;;;10.35;2.70;;;13.60;99.90;;;;;;5074685;28;20041;-78
2021/09/28 04:02:23;;;;;;;10.68;2.70;;;13.50;99.90;;;;;;5072833;28;20036;-78
2021/09/28 04:04:48;;;;;;;12.80;3.15;;;13.60;99.90;;;;;;5070737;28;20056;-78
2021/09/28 04:07:14;;;;;;;12.68;3.28;;;13.50;99.90;;;;;;5078189;28;20038;-77
2021/09/28 04:09:40;;;;;;;11.30;2.67;;;13.60;99.90;;;;;;5073084;28;20139;-78
2021/09/28 04:12:07;;;;;;;10.70;2.92;;;13.60;99.90;;;;;;5072723;28;20028;-77
2021/09/28 04:14:34;;;;;;;11.02;3.03;;;13.50;99.90;;;;;;5071819;28;20106;-78
2021/09/28 04:16:59;;;;;;;9.40;2.88;;;13.50;99.90;;;;;;5072024;28;20155;-77
2021/09/28 04:19:25;;;;;;;8.27;2.50;;;13.50;99.90;;;;;;5075002;28;20107;-77
2021/09/28 04:21:51;;;;;;;9.23;2.45;;;13.50;99.90;;;;;;5073427;28;20032;-78
2021/09/28 04:24:17;;;;;;;13.20;2.97;;;13.50;99.90;;;;;;5070537;28;20025;-78
2021/09/28 04:26:43;;;;;;;11.75;2.70;;;13.50;99.90;;;;;;5073461;28;20047;-78
2021/09/28 04:29:08;;;;;;;13.65;3.20;;;13.40;99.90;;;;;;5066568;28;20028;-78
2021/09/28 04:31:34;;;;;;;10.65;2.72;;;13.40;99.90;;;;;;5065319;28;20043;-78
2021/09/28 04:34:00;;;;;;;9.45;2.70;;;13.30;99.90;;;;;;5068909;28;20062;-78
2021/09/28 04:36:28;;;;;;;10.77;2.72;;;13.40;99.90;;;;;;5070111;28;20035;-79
2021/09/28 04:38:54;;;;;;;12.50;2.92;;;13.30;99.90;;;;;;5069939;28;20024;-78
2021/09/28 04:41:19;;;;;;;12.38;3.00;;;13.30;99.90;;;;;;5070934;28;20469;-79
2021/09/28 04:43:45;;;;;;;10.20;2.72;;;13.30;99.90;;;;;;5070467;28;21829;-79
2021/09/28 04:46:11;;;;;;;11.85;2.55;;;13.30;99.90;;;;;;5070798;28;20028;-78
2021/09/28 04:48:37;;;;;;;14.77;2.78;;;13.30;99.90;;;;;;5064942;28;20108;-79
2021/09/28 04:51:02;;;;;;;6.85;2.40;;;13.20;99.90;;;;;;5066372;28;20027;-78
2021/09/28 04:53:28;;;;;;;7.93;3.00;;;13.20;99.90;;;;;;5061861;28;20464;-80
2021/09/28 04:55:56;;;;;;;8.27;2.85;;;13.20;99.90;;;;;;5040700;28;20040;-77
2021/09/28 04:58:24;;;;;;;11.40;2.92;;;13.20;99.90;;;;;;5086864;28;20510;-75
2021/09/28 05:00:51;;;;;;;9.00;2.42;;;13.20;99.90;;;;;;5074695;28;20111;-78
2021/09/28 05:03:17;;;;;;;10.52;2.63;;;13.10;99.90;;;;;;5084555;28;20391;-79
2021/09/28 05:05:43;;;;;;;9.98;2.40;;;13.20;99.90;;;;;;5074619;28;20025;-78
2021/09/28 05:08:09;;;;;;;5.45;2.10;;;13.10;99.90;;;;;;5066488;28;20032;-77
2021/09/28 05:10:36;;;;;;;12.68;2.58;;;13.10;99.90;;;;;;5076394;28;20017;-78
2021/09/28 05:13:03;;;;;;;7.90;2.53;;;13.10;99.90;;;;;;5073754;28;20457;-78
2021/09/28 05:15:29;;;;;;;10.30;2.60;;;13.10;99.90;;;;;;5068634;28;20084;-78
2021/09/28 05:17:55;;;;;;;7.95;2.40;;;13.10;99.90;;;;;;5077458;28;20468;-77
2021/09/28 05:20:20;;;;;;;6.95;2.58;;;13.00;99.90;;;;;;5069095;28;20033;-78
2021/09/28 05:22:46;;;;;;;9.55;3.10;;;13.00;99.90;;;;;;5071635;28;20098;-78
2021/09/28 05:25:12;;;;;;;11.90;3.20;;;13.00;99.90;;;;;;5071366;28;20376;-78
2021/09/28 05:27:37;;;;;;;8.82;2.35;;;13.00;99.90;;;;;;5072812;28;20407;-77
2021/09/28 05:30:04;;;;;;;8.43;2.42;;;13.00;99.90;;;;;;5074857;28;20127;-77
2021/09/28 05:32:31;;;;;;;11.40;2.38;;;13.00;99.90;;;;;;5074999;28;20020;-78
2021/09/28 05:34:57;;;;;;;10.57;2.63;;;13.00;99.90;;;;;;5073331;28;20027;-71
2021/09/28 05:37:23;;;;;;;8.73;2.65;;;13.00;99.90;;;;;;5072206;28;20220;-78
2021/09/28 05:39:49;;;;;;;15.32;4.22;;;13.00;99.90;;;;;;5075770;28;20064;-76
2021/09/28 05:42:14;;;;;;;12.65;3.65;;;12.90;99.90;;;;;;5066665;28;20067;-78
2021/09/28 05:44:40;;;;;;;9.27;2.88;;;12.90;99.90;;;;;;5075728;28;20096;-82
2021/09/28 05:47:06;;;;;;;10.85;3.25;;;12.90;99.90;;;;;;5070389;28;20082;-82
2021/09/28 05:49:32;;;;;;;9.85;3.22;;;12.90;99.90;;;;;;5074646;28;20051;-79
2021/09/28 05:51:59;;;;;;;10.35;2.67;;;12.90;99.90;;;;;;5077329;28;20020;-78
2021/09/28 05:54:25;;;;;;;12.25;3.42;;;12.90;99.90;;;;;;5071999;28;20024;-76
2021/09/28 05:56:52;;;;;;;13.85;3.47;;;12.90;99.90;;;;;;5073365;28;20069;-78
2021/09/28 05:59:19;;;;;;;12.63;3.38;;;12.80;99.90;;;;;;5076979;28;20019;-77
2021/09/28 06:01:44;;;;;;;13.45;2.75;;;12.90;99.90;;;;;;5077520;28;20059;-78
2021/09/28 06:04:10;;;;;;;7.82;3.33;;;12.90;99.90;;;;;;5076006;28;20059;-77
2021/09/28 06:06:37;;;;;;;12.07;3.28;;;12.90;99.90;;;;;;5078251;28;20071;-77
2021/09/28 06:09:04;;;;;;;12.43;3.92;;;12.80;99.90;;;;;;5070527;28;20074;-78
2021/09/28 06:11:30;;;;;;;13.25;4.28;;;12.90;99.90;;;;;;5082799;28;20045;-77
2021/09/28 06:13:56;;;;;;;16.92;3.70;;;12.80;99.90;;;;;;5082328;28;20031;-75
2021/09/28 06:16:21;;;;;;;16.20;4.20;;;12.80;99.90;;;;;;5076748;28;20017;-77
2021/09/28 06:18:47;;;;;;;14.65;4.63;;;12.80;99.90;;;;;;5073332;28;20081;-78
2021/09/28 06:21:13;;;;;;;12.57;3.60;;;12.80;99.90;;;;;;5078026;28;20431;-78
2021/09/28 06:23:38;;;;;;;8.05;2.90;;;12.80;99.90;;;;;;5076831;28;20111;-78
2021/09/28 06:26:04;;;;;;;7.15;2.78;;;12.80;99.90;;;;;;5074987;28;20055;-78
2021/09/28 06:28:30;;;;;;;11.02;3.03;;;12.80;99.90;;;;;;5074586;28;20036;-78
2021/09/28 06:30:56;;;;;;;11.98;3.40;;;12.80;99.90;;;;;;5077730;28;20020;-77
2021/09/28 06:33:22;;;;;;;8.73;3.03;;;12.80;99.90;;;;;;5074278;28;20028;-79
2021/09/28 06:35:47;;;;;;;13.63;3.53;;;12.80;99.90;;;;;;5072628;28;20434;-77
2021/09/28 06:38:13;;;;;;;10.85;3.08;;;12.90;99.90;;;;;;5072756;28;20465;-75
2021/09/28 06:40:39;;;;;;;14.38;3.60;;;12.90;99.90;;;;;;5075754;28;20032;-78
2021/09/28 06:43:04;;;;;;;9.20;2.72;;;13.00;99.90;;;;;;5077296;28;20055;-78
2021/09/28 06:45:30;;;;;;;10.20;2.95;;;13.00;99.90;;;;;;5076496;28;20025;-78
2021/09/28 06:47:56;;;;;;;10.02;3.03;;;13.00;99.90;;;;;;5078056;28;20081;-78
2021/09/28 06:50:22;;;;;;;12.10;3.47;;;13.00;99.90;;;;;;5080261;28;20048;-78
2021/09/28 06:52:48;;;;;;;10.75;3.28;;;13.00;99.90;;;;;;5073823;28;20067;-75
2021/09/28 06:55:14;;;;;;;8.20;3.63;;;13.00;99.90;;;;;;5077452;28;20128;-79
2021/09/28 06:57:40;;;;;;;9.40;3.22;;;13.10;99.90;;;;;;5075682;28;20029;-78
2021/09/28 07:00:06;;;;;;;12.25;2.75;;;13.10;99.90;;;;;;5074588;28;20076;-78
2021/09/28 07:02:32;;;;;;;10.00;3.00;;;13.10;99.90;;;;;;5069929;28;20085;-76
2021/09/28 07:04:58;;;;;;;12.73;3.30;;;13.10;99.90;;;;;;5073179;28;20489;-77
2021/09/28 07:07:24;;;;;;;8.90;3.20;;;13.10;99.90;;;;;;5070329;28;20025;-78
2021/09/28 07:09:51;;;;;;;10.57;3.45;;;13.10;99.90;;;;;;5072178;28;20373;-77
2021/09/28 07:12:16;;;;;;;11.15;3.15;;;13.20;99.90;;;;;;5067067;28;20396;-77
2021/09/28 07:14:42;;;;;;;6.03;2.97;;;13.20;99.90;;;;;;5077969;28;20024;-78
2021/09/28 07:17:08;;;;;;;9.25;2.88;;;13.20;99.90;;;;;;5068368;28;20047;-78
2021/09/28 07:19:34;;;;;;;10.48;3.20;;;13.20;99.90;;;;;;5076679;28;20035;-77
2021/09/28 07:21:59;;;;;;;11.30;3.15;;;13.30;99.90;;;;;;5076294;28;20024;-77
2021/09/28 07:24:25;;;;;;;16.38;3.25;;;13.30;99.90;;;;;;5064821;28;20086;-75
2021/09/28 07:26:51;;;;;;;9.95;3.42;;;13.30;99.90;;;;;;5072781;28;20028;-78
2021/09/28 07:29:16;;;;;;;10.05;3.20;;;13.30;99.90;;;;;;5073826;28;20404;-76
2021/09/28 07:31:42;;;;;;;10.18;3.03;;;13.40;99.90;;;;;;5072602;28;20111;-78
2021/09/28 07:34:09;;;;;;;7.40;2.97;;;13.50;99.90;;;;;;5073390;28;20111;-76
2021/09/28 07:36:35;;;;;;;7.85;2.40;;;13.50;99.90;;;;;;5072669;28;20020;-77
2021/09/28 07:39:01;;;;;;;11.57;3.47;;;13.60;99.90;;;;;;5074025;28;20047;-77
2021/09/28 07:41:27;;;;;;;11.65;3.08;;;13.60;99.90;;;;;;5073656;28;20492;-78
2021/09/28 07:43:53;;;;;;;10.75;2.72;;;13.70;99.90;;;;;;5074811;28;20028;-78
2021/09/28 07:46:18;;;;;;;8.98;2.42;;;13.70;99.90;;;;;;5074713;28;20016;-77
2021/09/28 07:48:45;;;;;;;11.05;3.20;;;13.80;99.90;;;;;;5072675;28;20460;-77
2021/09/28 07:51:11;;;;;;;10.52;2.95;;;13.90;99.90;;;;;;5072128;28;20012;-78
2021/09/28 07:53:37;;;;;;;8.50;2.88;;;13.90;99.90;;;;;;5072125;28;20048;-77
2021/09/28 07:56:03;;;;;;;7.65;2.63;;;13.90;99.90;;;;;;5070807;28;20071;-77
2021/09/28 07:58:29;;;;;;;7.82;2.97;;;13.90;99.90;;;;;;5073679;28;20029;-77
2021/09/28 08:00:54;;;;;;;6.70;2.67;;;14.00;99.90;;;;;;5065917;28;20020;-76
2021/09/28 08:03:20;;;;;;;10.05;2.47;;;14.10;99.90;;;;;;5066598;28;20032;-78
2021/09/28 08:05:48;;;;;;;12.73;2.85;;;14.00;99.90;;;;;;5071992;28;20119;-77
2021/09/28 08:08:14;;;;;;;11.98;2.63;;;14.10;99.90;;;;;;5071618;28;20035;-78
2021/09/28 08:10:39;;;;;;;10.18;2.40;;;14.20;99.90;;;;;;5077023;28;20389;-78
2021/09/28 08:13:05;;;;;;;11.60;2.78;;;14.30;99.90;;;;;;5076234;28;20029;-78
2021/09/28 08:15:35;;;;;;;9.07;2.33;;;14.40;99.90;;;;;;5068580;28;20020;-77
2021/09/28 08:18:01;;;;;;;11.88;3.08;;;14.40;99.90;;;;;;5072547;28;20016;-78
2021/09/28 08:20:26;;;;;;;10.23;2.53;;;14.60;99.90;;;;;;5077999;28;20506;-77
2021/09/28 08:22:54;;;;;;;17.25;3.60;;;14.70;99.90;;;;;;5074504;28;20119;-78
2021/09/28 08:25:22;;;;;;;11.10;2.80;;;14.70;99.90;;;;;;5075455;28;20013;-77
2021/09/28 08:30:32;;;;;;;12.95;3.25;;;14.80;99.90;;;;;;5072942;28;20032;-78
2021/09/28 08:32:57;;;;;;;12.00;2.55;;;14.90;99.90;;;;;;5069233;28;20032;-77
2021/09/28 08:35:23;;;;;;;12.77;2.25;;;14.90;99.90;;;;;;5065180;28;20028;-78
2021/09/28 08:37:49;;;;;;;9.50;2.70;;;15.00;99.90;;;;;;5071910;28;20031;-75
2021/09/28 08:40:18;;;;;;;14.00;2.75;;;15.00;99.90;;;;;;5069137;28;20056;-78
2021/09/28 08:42:44;;;;;;;14.05;3.25;;;15.10;99.90;;;;;;5071027;28;20044;-78
2021/09/28 08:45:10;;;;;;;10.52;2.35;;;15.20;99.90;;;;;;5067407;28;20039;-77
2021/09/28 08:47:37;;;;;;;9.77;2.28;;;15.30;99.90;;;;;;5067089;28;20519;-77
2021/09/28 08:50:05;;;;;;;10.27;2.78;;;15.40;99.90;;;;;;5067825;28;20027;-76
2021/09/28 08:52:31;;;;;;;12.32;2.10;;;15.50;99.90;;;;;;5068156;28;20447;-77
2021/09/28 08:54:57;;;;;;;11.38;2.47;;;15.60;99.90;;;;;;5064424;28;20020;-77
2021/09/28 08:57:23;;;;;;;7.13;2.40;;;15.60;99.90;;;;;;5071457;28;20469;-76
2021/09/28 08:59:49;;;;;;;8.18;2.15;;;15.60;99.90;;;;;;5068078;28;20021;-74
2021/09/28 09:02:15;;;;;;;10.90;2.53;;;15.70;99.90;;;;;;5072805;28;20485;-76
2021/09/28 09:04:42;;;;;;;10.82;2.25;;;15.70;99.90;;;;;;5072675;28;20052;-77
2021/09/28 09:07:28;;;;;;;11.85;2.38;;;15.70;99.90;;;;;;5073575;28;20036;-77
2021/09/28 09:09:53;;;;;;;13.60;3.35;;;15.70;99.90;;;;;;5078405;28;20044;-78
2021/09/28 09:12:35;;;;;;;11.10;2.30;;;15.80;99.90;;;;;;5070429;28;20068;-78
2021/09/28 09:15:28;;;;;;;8.07;2.28;;;15.80;99.90;;;;;;5063816;28;20104;-78
2021/09/28 09:17:56;;;;;;;11.50;2.45;;;15.90;99.90;;;;;;5073444;28;20450;-76
2021/09/28 09:20:27;;;;;;;8.90;2.30;;;16.00;99.90;;;;;;5069011;28;20488;-77
2021/09/28 09:22:54;;;;;;;12.63;2.05;;;16.00;99.90;;;;;;5070246;28;20032;-78
2021/09/28 09:25:21;;;;;;;15.05;2.60;;;15.90;99.90;;;;;;5071312;28;20024;-78
2021/09/28 09:27:48;;;;;;;12.93;2.60;;;15.90;99.90;;;;;;5074525;28;20037;-78
2021/09/28 09:30:20;;;;;;;12.13;2.20;;;16.10;99.90;;;;;;5069354;28;20028;-77
2021/09/28 09:32:59;;;;;;;8.60;2.38;;;16.10;99.90;;;;;;5067673;28;20552;-78
2021/09/28 09:35:25;;;;;;;10.38;2.67;;;16.20;99.90;;;;;;5071689;28;20013;-77
2021/09/28 09:37:51;;;;;;;8.20;2.40;;;16.10;99.90;;;;;;5069758;28;20086;-78
2021/09/28 09:40:49;;;;;;;5.45;2.10;;;16.20;99.90;;;;;;5077977;28;20027;-77
2021/09/28 09:43:17;;;;;;;9.15;1.80;;;16.30;99.90;;;;;;5025926;28;20056;-74
2021/09/28 09:45:43;;;;;;;14.95;2.70;;;16.50;99.90;;;;;;5076619;28;20016;-77
2021/09/28 09:48:23;;;;;;;10.95;2.38;;;16.50;99.90;;;;;;5076159;28;20369;-74
2021/09/28 09:51:02;;;;;;;10.50;2.10;;;16.60;99.90;;;;;;5074615;28;20055;-76
2021/09/28 09:53:28;;;;;;;12.93;2.22;;;16.70;99.90;;;;;;5069370;28;20024;-76
2021/09/28 09:55:53;;;;;;;11.88;2.60;;;16.70;99.90;;;;;;5075241;28;20043;-78
2021/09/28 09:58:20;;;;;;;13.88;2.28;;;16.80;99.90;;;;;;5073540;28;20028;-74
2021/09/28 10:00:52;;;;;;;13.63;1.80;;;16.90;99.90;;;;;;5073043;28;20020;-77
2021/09/28 10:03:18;;;;;;;17.50;2.75;;;16.90;99.90;;;;;;5073606;28;20495;-77
2021/09/28 10:05:44;;;;;;;10.85;2.00;;;16.90;99.90;;;;;;5071607;28;20031;-76
2021/09/28 10:08:13;;;;;;;10.50;1.75;;;16.80;99.90;;;;;;5077114;28;20034;-76
2021/09/28 10:10:41;;;;;;;13.07;1.70;;;17.00;99.90;;;;;;5072640;28;20123;-80
2021/09/28 10:13:07;;;;;;;11.00;2.38;;;17.00;99.90;;;;;;5074957;28;20090;-78
2021/09/28 10:15:34;;;;;;;13.30;2.70;;;17.10;99.90;;;;;;5078078;28;20330;-76
2021/09/28 10:18:00;;;;;;;12.07;2.03;;;17.10;99.90;;;;;;5077503;28;20380;-76
2021/09/28 10:20:28;;;;;;;12.88;2.15;;;17.20;99.90;;;;;;5078522;28;20472;-78
2021/09/28 10:22:59;;;;;;;14.85;2.70;;;17.20;99.90;;;;;;5078031;28;20200;-77
2021/09/28 10:25:36;;;;;;;9.55;1.98;;;17.40;99.90;;;;;;5072109;28;20021;-78
2021/09/28 10:28:04;;;;;;;9.20;1.90;;;17.60;99.90;;;;;;5071554;28;20697;-72
2021/09/28 10:30:33;;;;;;;8.93;2.20;;;17.60;99.90;;;;;;5065482;28;20476;-76
2021/09/28 10:33:08;;;;;;;9.35;2.15;;;17.70;99.90;;;;;;5070089;28;20025;-77
2021/09/28 10:35:35;;;;;;;12.85;1.75;;;17.60;99.90;;;;;;5070011;28;20952;-77
2021/09/28 10:38:03;;;;;;;7.15;1.80;;;17.90;99.90;;;;;;5065452;28;20040;-77
2021/09/28 10:40:32;;;;;;;12.10;2.08;;;18.10;99.90;;;;;;5073001;28;20036;-77
2021/09/28 10:43:04;;;;;;;12.48;2.13;;;18.20;99.90;;;;;;5070759;28;20051;-78
2021/09/28 10:45:29;;;;;;;15.82;2.38;;;18.20;99.90;;;;;;5075338;28;20017;-77
2021/09/28 10:47:56;;;;;;;11.88;2.72;;;18.30;99.90;;;;;;5074599;28;20654;-77
2021/09/28 10:50:34;;;;;;;11.60;1.73;;;18.20;99.90;;;;;;5068651;28;20488;-78
2021/09/28 10:53:03;;;;;;;13.32;2.00;;;18.30;99.90;;;;;;5080017;28;20077;-78
2021/09/28 10:55:38;;;;;;;8.55;2.25;;;18.40;99.90;;;;;;5071099;28;20020;-78
2021/09/28 10:58:10;;;;;;;12.50;2.15;;;18.30;99.90;;;;;;5078633;28;20120;-78
2021/09/28 11:00:39;;;;;;;9.98;1.98;;;18.40;99.90;;;;;;5073136;28;20399;-78
2021/09/28 11:03:06;;;;;;;11.70;2.00;;;18.30;99.90;;;;;;5072189;28;20036;-76
2021/09/28 11:05:35;;;;;;;7.85;2.15;;;18.30;99.90;;;;;;5070145;28;20039;-75
2021/09/28 11:08:02;;;;;;;9.05;1.73;;;18.40;99.90;;;;;;5071359;28;20139;-76
2021/09/28 11:10:30;;;;;;;14.90;2.13;;;18.60;99.90;;;;;;5069795;28;20046;-76
2021/09/28 11:12:56;;;;;;;14.10;3.10;;;18.70;99.90;;;;;;5077425;28;20051;-75
2021/09/28 11:15:23;;;;;;;10.07;1.83;;;18.70;99.90;;;;;;5065591;28;20083;-74
2021/09/28 11:17:49;;;;;;;14.75;2.65;;;18.80;99.90;;;;;;5077322;28;20029;-76
2021/09/28 11:20:30;;;;;;;10.77;2.05;;;18.80;99.90;;;;;;5078163;28;20123;-73
2021/09/28 11:23:02;;;;;;;7.00;1.70;;;18.80;99.90;;;;;;5077280;28;20029;-76
2021/09/28 11:25:28;;;;;;;12.80;2.17;;;18.60;99.90;;;;;;5073104;28;20012;-74
2021/09/28 11:28:12;;;;;;;7.55;2.33;;;18.60;99.90;;;;;;5074084;28;20094;-73
2021/09/28 11:30:39;;;;;;;9.38;1.80;;;18.70;99.90;;;;;;5079439;28;20042;-73
2021/09/28 11:33:07;;;;;;;13.68;2.05;;;18.60;99.90;;;;;;5075160;28;20020;-73
2021/09/28 11:35:34;;;;;;;7.40;1.75;;;18.70;99.90;;;;;;5073245;28;20032;-74
2021/09/28 11:38:03;;;;;;;8.43;1.75;;;18.80;99.90;;;;;;5074176;28;20016;-74
2021/09/28 11:40:36;;;;;;;7.82;1.58;;;18.70;99.90;;;;;;5069970;28;20054;-75
2021/09/28 11:43:20;;;;;;;6.82;1.55;;;18.80;99.90;;;;;;5072831;28;20068;-76
2021/09/28 11:45:55;;;;;;;8.43;1.80;;;18.80;99.90;;;;;;5075451;28;20473;-75
2021/09/28 11:48:21;;;;;;;8.18;1.83;;;18.70;99.90;;;;;;5071861;28;20104;-76
2021/09/28 11:50:46;;;;;;;9.43;2.17;;;18.90;99.90;;;;;;5070760;28;20119;-74
2021/09/28 11:53:14;;;;;;;8.10;1.48;;;18.90;99.90;;;;;;5069977;28;20052;-75
2021/09/28 11:55:40;;;;;;;6.63;1.50;;;18.80;99.90;;;;;;5078750;28;20082;-73
2021/09/28 11:58:06;;;;;;;9.85;1.90;;;18.80;99.90;;;;;;5077105;28;20037;-75
2021/09/28 12:00:31;;;;;;;8.88;1.67;;;19.00;99.90;;;;;;5073982;28;20104;-75
2021/09/28 12:03:08;;;;;;;6.50;1.77;;;18.90;99.90;;;;;;5074686;28;20036;-74
2021/09/28 12:06:27;;;;;;;5.28;1.30;;;18.90;99.90;;;;;;5073393;28;20473;-74
2021/09/28 12:08:33;;;;;;;12.02;1.52;;;19.00;99.90;;;;;;5064241;28;20044;-75
2021/09/28 12:11:03;;;;;;;6.25;1.13;;;19.30;99.90;;;;;;5075947;28;20024;-75
2021/09/28 12:13:30;;;;;;;4.47;1.23;;;19.20;99.90;;;;;;5073822;28;20107;-74
2021/09/28 12:16:13;;;;;;;7.43;1.48;;;19.10;99.90;;;;;;5069246;28;20013;-75
2021/09/28 12:18:39;;;;;;;;;;;19.20;99.90;;;;;;5074571;28;20025;-76
2021/09/28 12:21:25;;;;;;;9.25;1.75;;;19.30;99.90;;;;;;5073317;28;20331;-76
2021/09/28 12:24:17;;;;;;;9.52;1.70;;;19.40;99.90;;;;;;5067222;28;20044;-74
2021/09/28 12:26:43;;;;;;;10.63;2.00;;;19.40;99.90;;;;;;5066841;28;20025;-76
2021/09/28 12:29:21;;;;;;;8.82;1.77;;;19.40;99.90;;;;;;5074755;28;20107;-75
2021/09/28 12:31:47;;;;;;;5.40;1.17;;;19.50;99.90;;;;;;5061798;28;20515;-74
2021/09/28 12:34:14;;;;;;;6.05;1.27;;;19.50;99.90;;;;;;5070212;28;20105;-75
2021/09/28 12:36:40;;;;;;;9.18;1.52;;;19.60;99.90;;;;;;5072083;28;20135;-76
2021/09/28 12:39:25;;;;;;;11.63;2.13;;;19.60;99.90;;;;;;5072124;28;20393;-75
2021/09/28 12:41:59;;;;;;;8.40;1.60;;;19.50;99.90;;;;;;5065121;28;20029;-74
2021/09/28 12:44:26;;;;;;;6.72;1.80;;;19.60;99.90;;;;;;5069773;28;20445;-74